createdAt,value
2023-05-19T06:51:57.313Z,98892.20
2023-05-19T06:54:25.696Z,98893.18
2023-05-19T06:56:54.912Z,98893.27
2023-05-19T06:59:23.570Z,98887.12
2023-05-19T07:01:51.756Z,98887.85
2023-05-19T07:04:19.758Z,98890.95
2023-05-19T07:06:48.213Z,98888.63
2023-05-19T07:09:16.575Z,98887.86
2023-05-19T07:11:45.248Z,98885.83
2023-05-19T07:14:12.832Z,98886.50
2023-05-19T07:16:41.797Z,98885.44
2023-05-19T07:19:09.869Z,98878.39
2023-05-19T07:21:37.463Z,98880.91
2023-05-19T07:24:05.913Z,98878.73
2023-05-19T07:26:38.673Z,98879.84
2023-05-19T07:29:07.119Z,98877.39
2023-05-19T07:31:34.859Z,98882.00
2023-05-19T07:34:03.778Z,98876.45
2023-05-19T07:36:31.715Z,98881.83
2023-05-19T07:39:01.619Z,98882.98
2023-05-19T07:41:34.378Z,98884.30
2023-05-19T07:44:16.681Z,98882.40
2023-05-19T07:46:44.740Z,98880.45
2023-05-19T07:49:16.992Z,98879.64
2023-05-19T07:51:45.690Z,98880.17
2023-05-19T07:54:13.448Z,98881.02
2023-05-19T07:56:41.716Z,98876.85
2023-05-19T07:59:09.601Z,98875.37
2023-05-19T08:01:37.525Z,98880.23
2023-05-19T08:04:05.507Z,98878.53
2023-05-19T08:06:33.429Z,98874.73
2023-05-19T08:09:01.277Z,98871.94
2023-05-19T08:11:28.856Z,98873.09
2023-05-19T08:13:56.710Z,98873.71
2023-05-19T08:16:25.239Z,98871.83
2023-05-19T08:18:52.857Z,98867.21
2023-05-19T08:21:20.755Z,98868.52
2023-05-19T08:23:48.548Z,98870.05
2023-05-19T08:26:20.699Z,98873.79
2023-05-19T08:28:51.361Z,98873.36
2023-05-19T08:31:19.420Z,98875.48
2023-05-19T08:33:47.345Z,98874.10
2023-05-19T08:36:15.087Z,98872.80
2023-05-19T08:38:42.766Z,98871.89
2023-05-19T08:41:11.118Z,98875.30
2023-05-19T08:43:40.076Z,98872.31
2023-05-19T08:46:08.693Z,98869.31
2023-05-19T08:48:36.547Z,98870.93
2023-05-19T08:51:42.010Z,98870.35
2023-05-19T08:54:18.259Z,98871.08
2023-05-19T08:56:46.090Z,98872.19
2023-05-19T08:59:14.811Z,98870.02
2023-05-19T09:01:46.257Z,98872.16
2023-05-19T09:04:14.384Z,98872.42
2023-05-19T09:11:06.012Z,98869.27
2023-05-19T09:13:33.610Z,98871.31
2023-05-19T09:16:02.479Z,98870.66
2023-05-19T09:18:33.238Z,98869.09
2023-05-19T09:21:03.036Z,98868.41
2023-05-19T09:23:33.693Z,98870.02
2023-05-19T09:26:08.144Z,98869.69
2023-05-19T09:28:36.772Z,98866.34
2023-05-19T09:31:06.685Z,98864.91
2023-05-19T09:33:38.972Z,98863.48
2023-05-19T09:36:08.962Z,98859.46
2023-05-19T09:38:37.266Z,98856.08
2023-05-19T09:41:05.822Z,98853.04
2023-05-19T09:43:34.792Z,98851.58
2023-05-19T09:46:13.725Z,98847.11
2023-05-19T09:48:42.729Z,98850.95
2023-05-19T09:51:13.108Z,98855.30
2023-05-19T09:53:40.584Z,98855.09
2023-05-19T09:56:09.191Z,98854.21
2023-05-19T09:58:39.430Z,98851.41
2023-05-19T10:01:07.277Z,98850.83
2023-05-19T10:03:35.301Z,98850.73
2023-05-19T10:06:07.691Z,98851.56
2023-05-19T10:08:36.456Z,98847.69
2023-05-19T10:11:05.985Z,98847.13
2023-05-19T10:13:33.627Z,98845.06
2023-05-19T10:16:01.624Z,98841.77
2023-05-19T10:18:30.033Z,98843.08
2023-05-19T10:20:58.448Z,98844.27
2023-05-19T10:23:26.921Z,98847.27
2023-05-19T10:25:57.266Z,98849.46
2023-05-19T10:28:28.571Z,98847.72
2023-05-19T10:31:00.201Z,98844.39
2023-05-19T10:33:59.449Z,98846.52
2023-05-19T10:36:42.957Z,98852.55
2023-05-19T10:39:26.634Z,98851.58
2023-05-19T10:42:01.211Z,98847.05
2023-05-19T10:44:57.373Z,98846.66
2023-05-19T10:47:26.917Z,98843.77
2023-05-19T10:49:55.108Z,98845.34
2023-05-19T10:52:26.416Z,98845.86
2023-05-19T10:54:55.474Z,98842.56
2023-05-19T10:57:32.464Z,98844.63
2023-05-19T11:00:10.569Z,98842.92
2023-05-19T11:02:38.295Z,98848.10
2023-05-19T11:05:15.248Z,98841.48
2023-05-19T11:07:44.627Z,98838.45
2023-05-19T11:10:12.809Z,98842.18
2023-05-19T11:12:45.836Z,98838.98
2023-05-19T11:15:16.869Z,98848.55
2023-05-19T11:17:49.022Z,98845.76
2023-05-19T11:20:27.363Z,98847.47
2023-05-19T11:23:07.511Z,98853.17
2023-05-19T11:25:48.702Z,98856.73
2023-05-19T11:28:20.126Z,98856.92
2023-05-19T11:30:52.597Z,98849.23
2023-05-19T11:33:21.321Z,98845.77
2023-05-19T11:35:52.183Z,98847.16
2023-05-19T11:38:20.098Z,98843.65
2023-05-19T11:40:50.091Z,98844.00
2023-05-19T11:43:17.677Z,98847.74
2023-05-19T11:45:46.136Z,98847.20
2023-05-19T11:48:19.039Z,98845.91
2023-05-19T11:50:48.944Z,98844.63
2023-05-19T11:53:20.175Z,98841.89
2023-05-19T11:55:48.790Z,98843.14
2023-05-19T11:58:17.828Z,98842.27
2023-05-19T12:00:46.753Z,98842.58
2023-05-19T12:03:14.504Z,98844.72
2023-05-19T12:05:46.893Z,98843.38
2023-05-19T12:08:15.403Z,98842.98
2023-05-19T12:10:43.404Z,98836.83
2023-05-19T12:13:11.309Z,98835.13
2023-05-19T12:15:39.750Z,98835.42
2023-05-19T12:18:09.268Z,98832.30
2023-05-19T12:20:37.533Z,98832.58
2023-05-19T12:23:05.441Z,98835.39
2023-05-19T12:25:33.659Z,98831.13
2023-05-19T12:28:03.805Z,98836.86
2023-05-19T12:30:36.044Z,98844.27
2023-05-19T12:33:04.402Z,98855.48
2023-05-19T12:35:38.282Z,98854.56
2023-05-19T12:38:14.936Z,98844.48
2023-05-19T12:40:53.594Z,98837.15
2023-05-19T12:43:22.994Z,98848.21
2023-05-19T12:45:51.259Z,98854.18
2023-05-19T12:48:24.527Z,98852.67
2023-05-19T12:50:54.301Z,98854.98
2023-05-19T12:53:22.144Z,98860.95
2023-05-19T12:55:53.113Z,98858.80
2023-05-19T12:58:23.796Z,98857.70
2023-05-19T13:00:52.275Z,98858.27
2023-05-19T13:03:21.636Z,98868.04
2023-05-19T13:05:51.271Z,98865.31
2023-05-19T13:08:20.810Z,98867.15
2023-05-19T13:10:49.535Z,98867.28
2023-05-19T13:13:17.264Z,98863.29
2023-05-19T13:15:46.088Z,98858.98
2023-05-19T13:18:14.098Z,98853.23
2023-05-19T13:20:42.564Z,98845.52
2023-05-19T13:23:11.499Z,98843.38
2023-05-19T13:25:39.440Z,98846.77
2023-05-19T13:28:07.046Z,98848.09
2023-05-19T13:30:36.062Z,98835.84
2023-05-19T13:33:04.205Z,98826.14
2023-05-19T13:35:38.213Z,98828.05
2023-05-19T13:38:11.969Z,98833.91
2023-05-19T13:40:40.356Z,98826.98
2023-05-19T13:43:09.372Z,98831.71
2023-05-19T13:45:37.735Z,98833.25
2023-05-19T13:48:09.647Z,98825.16
2023-05-19T13:50:37.312Z,98825.45
2023-05-19T13:53:08.358Z,98822.16
2023-05-19T13:55:35.999Z,98825.45
2023-05-19T13:58:04.291Z,98823.18
2023-05-19T14:00:32.877Z,98824.71
2023-05-19T14:03:01.196Z,98822.08
2023-05-19T14:05:29.300Z,98823.98
2023-05-19T14:07:58.419Z,98828.45
2023-05-19T14:10:26.513Z,98829.63
2023-05-19T14:13:25.976Z,98830.23
2023-05-19T14:15:42.318Z,98826.38
2023-05-19T14:18:11.701Z,98832.58
2023-05-19T14:20:39.406Z,98831.59
2023-05-19T14:23:07.015Z,98832.77
2023-05-19T14:25:35.038Z,98830.45
2023-05-19T14:28:02.522Z,98834.36
2023-05-19T14:30:30.438Z,98832.42
2023-05-19T14:32:58.330Z,98838.33
2023-05-19T14:35:26.350Z,98844.53
2023-05-19T14:37:54.079Z,98844.61
2023-05-19T14:40:21.558Z,98841.72
2023-05-19T14:42:49.952Z,98838.90
2023-05-19T14:45:17.674Z,98839.44
2023-05-19T14:47:45.860Z,98842.61
2023-05-19T14:50:14.797Z,98838.88
2023-05-19T14:52:42.703Z,98839.97
2023-05-19T14:55:13.298Z,98838.73
2023-05-19T14:57:40.783Z,98838.05
2023-05-19T15:00:11.993Z,98842.31
2023-05-19T15:02:39.491Z,98845.41
2023-05-19T15:05:08.401Z,98847.96
2023-05-19T15:07:36.395Z,98847.30
2023-05-19T15:10:04.691Z,98844.38
2023-05-19T15:12:32.145Z,98840.63
2023-05-19T15:14:59.964Z,98844.41
2023-05-19T15:17:27.814Z,98844.27
2023-05-19T15:19:55.652Z,98846.98
2023-05-19T15:22:23.132Z,98843.23
2023-05-19T15:24:50.803Z,98843.68
2023-05-19T15:27:18.304Z,98845.00
2023-05-19T15:29:45.770Z,98843.36
2023-05-19T15:32:13.421Z,98846.18
2023-05-19T15:34:41.058Z,98843.63
2023-05-19T15:37:08.531Z,98842.97
2023-05-19T15:39:36.380Z,98843.92
2023-05-19T15:42:03.859Z,98844.36
2023-05-19T15:44:31.485Z,98846.30
2023-05-19T15:46:59.003Z,98843.05
2023-05-19T15:49:26.474Z,98847.60
2023-05-19T15:51:54.136Z,98847.13
2023-05-19T15:54:21.583Z,98847.77
2023-05-19T15:56:49.235Z,98846.17
2023-05-19T15:59:16.812Z,98846.16
2023-05-19T16:01:44.290Z,98843.52
2023-05-19T16:04:11.927Z,98845.60
2023-05-19T16:06:39.696Z,98847.64
2023-05-19T16:09:07.145Z,98847.67
2023-05-19T16:11:34.678Z,98849.75
2023-05-19T16:14:02.188Z,98850.87
2023-05-19T16:16:29.735Z,98849.27
2023-05-19T16:18:57.306Z,98856.55
2023-05-19T16:21:24.948Z,98859.18
2023-05-19T16:23:52.475Z,98857.59
2023-05-19T16:26:20.003Z,98859.66
2023-05-19T16:28:47.392Z,98863.69
2023-05-19T16:31:14.915Z,98861.23
2023-05-19T16:33:42.819Z,98860.16
2023-05-19T16:36:10.362Z,98860.74
2023-05-19T16:38:37.819Z,98865.68
2023-05-19T16:41:07.628Z,98867.21
2023-05-19T16:43:36.200Z,98869.59
2023-05-19T16:46:04.943Z,98874.13
2023-05-19T16:48:32.445Z,98875.24
2023-05-19T16:51:00.187Z,98874.79
2023-05-19T16:53:27.988Z,98877.15
2023-05-19T16:55:55.450Z,98873.42
2023-05-19T16:58:22.944Z,98873.62
2023-05-19T17:00:53.509Z,98875.84
2023-05-19T17:03:21.513Z,98878.84
2023-05-19T17:05:49.139Z,98884.87
2023-05-19T17:08:16.949Z,98892.50
2023-05-19T17:10:45.238Z,98894.30
2023-05-19T17:13:13.261Z,98890.15
2023-05-19T17:15:42.857Z,98892.10
2023-05-19T17:18:12.845Z,98890.08
2023-05-19T17:20:40.522Z,98885.75
2023-05-19T17:23:08.557Z,98885.98
2023-05-19T17:25:36.251Z,98885.48
2023-05-19T17:28:04.090Z,98886.03
2023-05-19T17:30:31.881Z,98888.13
2023-05-19T17:32:59.799Z,98887.75
2023-05-19T17:35:28.525Z,98886.73
2023-05-19T17:37:56.278Z,98888.73
2023-05-19T17:40:23.836Z,98890.77
2023-05-19T17:42:51.555Z,98894.61
2023-05-19T17:45:19.343Z,98893.93
2023-05-19T17:47:47.186Z,98896.65
2023-05-19T17:50:15.781Z,98896.88
2023-05-19T17:52:43.489Z,98898.59
2023-05-19T17:55:12.249Z,98898.59
2023-05-19T17:57:40.654Z,98903.88
2023-05-19T18:00:09.577Z,98900.63
2023-05-19T18:02:37.592Z,98900.13
2023-05-19T18:05:05.849Z,98901.59
2023-05-19T18:07:33.451Z,98900.21
2023-05-19T18:10:01.988Z,98903.52
2023-05-19T18:12:29.570Z,98901.71
2023-05-19T18:14:57.187Z,98903.98
2023-05-19T18:17:24.913Z,98906.94
2023-05-19T18:19:52.546Z,98911.87
2023-05-19T18:22:20.286Z,98909.36
2023-05-19T18:24:49.353Z,98909.08
2023-05-19T18:27:16.780Z,98911.05
2023-05-19T18:29:44.375Z,98910.23
2023-05-19T18:32:14.802Z,98912.06
2023-05-19T18:34:42.415Z,98913.14
2023-05-19T18:37:09.871Z,98909.09
2023-05-19T18:39:37.726Z,98904.96
2023-05-19T18:42:05.364Z,98903.17
2023-05-19T18:44:34.189Z,98901.55
2023-05-19T18:47:01.711Z,98903.58
2023-05-19T18:49:29.130Z,98905.45
2023-05-19T18:51:56.555Z,98903.08
2023-05-19T18:54:24.234Z,98903.13
2023-05-19T18:56:51.693Z,98907.14
2023-05-19T18:59:19.277Z,98906.97
2023-05-19T19:01:47.138Z,98910.31
2023-05-19T19:04:16.906Z,98913.06
2023-05-19T19:06:44.548Z,98917.63
2023-05-19T19:09:12.546Z,98920.18
2023-05-19T19:11:40.095Z,98919.64
2023-05-19T19:14:07.835Z,98922.02
2023-05-19T19:16:35.403Z,98921.48
2023-05-19T19:19:02.958Z,98917.86
2023-05-19T19:21:30.481Z,98915.52
2023-05-19T19:23:58.370Z,98915.16
2023-05-19T19:26:27.363Z,98912.33
2023-05-19T19:28:56.125Z,98905.17
2023-05-19T19:31:23.840Z,98908.60
2023-05-19T19:33:51.294Z,98905.91
2023-05-19T19:36:18.775Z,98905.84
2023-05-19T19:38:46.291Z,98904.05
2023-05-19T19:41:13.822Z,98907.36
2023-05-19T19:43:41.219Z,98912.59
2023-05-19T19:46:09.519Z,98910.70
2023-05-19T19:48:37.234Z,98903.98
2023-05-19T19:51:04.772Z,98899.66
2023-05-19T19:53:32.218Z,98898.62
2023-05-19T19:56:00.359Z,98899.34
2023-05-19T19:58:28.907Z,98896.98
2023-05-19T20:01:00.500Z,98898.85
2023-05-19T20:03:28.164Z,98894.46
2023-05-19T20:05:56.864Z,98892.74
2023-05-19T20:08:24.898Z,98898.37
2023-05-19T20:10:52.433Z,98898.64
2023-05-19T20:13:20.294Z,98903.92
2023-05-19T20:15:47.877Z,98898.17
2023-05-19T20:18:15.583Z,98898.66
2023-05-19T20:20:43.465Z,98897.25
2023-05-19T20:23:10.896Z,98898.00
2023-05-19T20:25:53.680Z,98895.86
2023-05-19T20:28:26.537Z,98898.06
2023-05-19T20:30:54.015Z,98893.55
2023-05-19T20:33:21.579Z,98891.42
2023-05-19T20:35:48.996Z,98891.07
2023-05-19T20:38:16.457Z,98890.15
2023-05-19T20:40:43.992Z,98899.88
2023-05-19T20:43:11.465Z,98906.35
2023-05-19T20:45:39.016Z,98903.38
2023-05-19T20:48:06.721Z,98904.67
2023-05-19T20:50:34.433Z,98904.65
2023-05-19T20:53:02.236Z,98907.94
2023-05-19T20:55:29.671Z,98905.96
2023-05-19T20:57:57.180Z,98901.46
2023-05-19T21:00:24.776Z,98896.55
2023-05-19T21:02:52.224Z,98894.77
2023-05-19T21:05:19.820Z,98896.24
2023-05-19T21:07:47.298Z,98904.11
2023-05-19T21:10:14.746Z,98904.30
2023-05-19T21:12:42.193Z,98906.27
2023-05-19T21:15:10.510Z,98899.08
2023-05-19T21:17:37.930Z,98897.23
2023-05-19T21:20:06.348Z,98901.44
2023-05-19T21:22:35.936Z,98909.41
2023-05-19T21:25:04.133Z,98906.95
2023-05-19T21:27:33.176Z,98906.98
2023-05-19T21:30:00.706Z,98900.06
2023-05-19T21:32:29.875Z,98899.96
2023-05-19T21:34:57.346Z,98903.03
2023-05-19T21:37:25.011Z,98898.35
2023-05-19T21:39:52.566Z,98902.23
2023-05-19T21:42:20.066Z,98904.27
2023-05-19T21:44:47.510Z,98903.23
2023-05-19T21:47:16.422Z,98908.63
2023-05-19T21:49:43.979Z,98916.97
2023-05-19T21:52:11.404Z,98916.52
2023-05-19T21:54:38.864Z,98913.11
2023-05-19T21:57:06.981Z,98922.54
2023-05-19T21:59:34.410Z,98920.02
2023-05-19T22:02:01.914Z,98922.54
2023-05-19T22:04:31.778Z,98926.07
2023-05-19T22:06:59.256Z,98920.98
2023-05-19T22:09:26.788Z,98915.70
2023-05-19T22:11:54.253Z,98916.64
2023-05-19T22:14:21.759Z,98911.23
2023-05-19T22:16:49.270Z,98909.58
2023-05-19T22:19:16.972Z,98906.37
2023-05-19T22:21:44.525Z,98905.89
2023-05-19T22:24:12.032Z,98910.04
2023-05-19T22:26:43.021Z,98907.52
2023-05-19T22:29:15.339Z,98901.59
2023-05-19T22:31:42.802Z,98906.09
2023-05-19T22:34:12.920Z,98908.73
2023-05-19T22:36:41.826Z,98909.08
2023-05-19T22:39:09.284Z,98903.31
2023-05-19T22:41:36.999Z,98904.03
2023-05-19T22:44:04.469Z,98907.47
2023-05-19T22:46:32.082Z,98907.33
2023-05-19T22:48:59.774Z,98905.35
2023-05-19T22:51:27.210Z,98908.99
2023-05-19T22:53:54.638Z,98910.80
2023-05-19T22:56:22.794Z,98912.67
2023-05-19T22:58:50.220Z,98912.30
2023-05-19T23:01:17.787Z,98911.81
2023-05-19T23:03:45.351Z,98908.73
2023-05-19T23:06:12.804Z,98907.45
2023-05-19T23:08:40.298Z,98904.02
2023-05-19T23:11:08.282Z,98897.35
2023-05-19T23:13:35.775Z,98895.30
2023-05-19T23:16:03.266Z,98891.68
2023-05-19T23:18:30.690Z,98893.52
2023-05-19T23:20:58.128Z,98895.41
2023-05-19T23:23:27.542Z,98890.84
2023-05-19T23:25:55.198Z,98891.83
2023-05-19T23:28:22.715Z,98891.48
2023-05-19T23:30:53.113Z,98892.41
2023-05-19T23:33:20.758Z,98894.96
2023-05-19T23:35:48.324Z,98895.91
2023-05-19T23:38:16.165Z,98901.95
2023-05-19T23:40:44.416Z,98902.83
2023-05-19T23:43:11.867Z,98905.20
2023-05-19T23:45:39.305Z,98906.49
2023-05-19T23:48:06.980Z,98909.79
2023-05-19T23:50:34.685Z,98909.08
2023-05-19T23:53:02.233Z,98909.27
2023-05-19T23:55:29.774Z,98910.09
2023-05-19T23:57:57.184Z,98914.25
